Time;durP1;ratioP1;P1;durP2;ratioP2;P2;SDS_P1;SDS_P2;PMS_P1;PMS_P2;Temp;Humidity;BMP_temperature;BMP_pressure;BME280_temperature;BME280_humidity;BME280_pressure;Samples;Min_cycle;Max_cycle;Signal;HPM_P1;HPM_P2
2023/01/09 00:00:23;;;;;;;6.50;2.50;;;;;;;;;;5028258;28;20303;-66
2023/01/09 00:02:49;;;;;;;4.68;2.08;;;;;;;;;;5028285;28;20128;-66
2023/01/09 00:05:16;;;;;;;3.25;1.98;;;;;;;;;;5028853;28;20410;-66
2023/01/09 00:07:42;;;;;;;2.78;2.00;;;;;;;;;;5030118;28;20048;-66
2023/01/09 00:10:09;;;;;;;5.03;2.13;;;;;;;;;;5032452;28;20484;-66
2023/01/09 00:12:35;;;;;;;5.00;2.13;;;;;;;;;;5048835;28;20041;-66
2023/01/09 00:15:01;;;;;;;5.60;2.20;;;;;;;;;;5052092;28;20525;-66
2023/01/09 00:17:27;;;;;;;4.65;2.20;;;;;;;;;;5052083;28;20040;-66
2023/01/09 00:19:53;;;;;;;5.75;2.40;;;;;;;;;;5051933;28;20072;-66
2023/01/09 00:22:19;;;;;;;7.25;2.28;;;;;;;;;;5049712;28;20049;-66
2023/01/09 00:24:45;;;;;;;5.78;2.78;;;;;;;;;;5050676;28;20455;-66
2023/01/09 00:27:13;;;;;;;7.22;2.75;;;;;;;;;;5032722;28;20116;-66
2023/01/09 00:29:40;;;;;;;4.90;2.15;;;;;;;;;;5031786;28;20103;-66
2023/01/09 00:32:08;;;;;;;4.40;1.90;;;;;;;;;;5031608;28;20678;-66
2023/01/09 00:34:36;;;;;;;5.93;2.15;;;;;;;;;;5030601;28;20045;-66
2023/01/09 00:37:02;;;;;;;3.85;2.20;;;;;;;;;;5030097;28;20098;-66
2023/01/09 00:39:28;;;;;;;4.45;2.03;;;;;;;;;;5031970;28;20499;-66
2023/01/09 00:41:57;;;;;;;5.53;1.80;;;;;;;;;;5031536;28;20037;-68
2023/01/09 00:44:31;;;;;;;5.18;1.90;;;;;;;;;;5031869;28;20484;-68
2023/01/09 00:46:59;;;;;;;4.13;1.75;;;;;;;;;;5030235;28;20041;-68
2023/01/09 00:49:28;;;;;;;5.97;1.73;;;;;;;;;;5030313;28;20056;-67
2023/01/09 00:51:54;;;;;;;2.85;1.40;;;;;;;;;;5031368;28;20408;-67
2023/01/09 00:54:21;;;;;;;2.35;1.30;;;;;;;;;;5031528;28;20065;-67
2023/01/09 00:56:48;;;;;;;1.90;1.13;;;;;;;;;;5031683;28;20090;-67
2023/01/09 00:59:14;;;;;;;3.22;1.20;;;;;;;;;;5031250;28;20038;-67
2023/01/09 01:01:40;;;;;;;2.88;1.20;;;;;;;;;;5031682;28;20038;-67
2023/01/09 01:09:35;;;;;;;1.95;0.95;;;;;;;;;;5030866;28;20120;-67
2023/01/09 01:12:05;;;;;;;1.10;0.85;;;;;;;;;;5043706;28;20123;-67
2023/01/09 01:14:32;;;;;;;1.20;0.75;;;;;;;;;;5050590;28;20079;-67
2023/01/09 01:16:58;;;;;;;1.40;0.80;;;;;;;;;;5051344;28;20127;-67
2023/01/09 01:19:24;;;;;;;1.98;0.70;;;;;;;;;;5050461;28;20140;-67
2023/01/09 01:21:50;;;;;;;2.17;0.75;;;;;;;;;;5051008;28;20044;-67
2023/01/09 01:24:18;;;;;;;1.38;0.73;;;;;;;;;;5050527;28;20082;-67
2023/01/09 01:26:44;;;;;;;2.42;0.82;;;;;;;;;;5035659;28;20120;-67
2023/01/09 01:29:10;;;;;;;0.70;0.50;;;;;;;;;;5030586;28;20048;-67
2023/01/09 01:31:36;;;;;;;1.52;0.70;;;;;;;;;;5031037;28;20069;-67
2023/01/09 01:34:02;;;;;;;1.63;0.70;;;;;;;;;;5030627;28;20115;-67
2023/01/09 01:36:29;;;;;;;1.63;0.75;;;;;;;;;;5030913;28;20463;-67
2023/01/09 01:38:55;;;;;;;2.38;0.70;;;;;;;;;;5029234;28;20087;-67
2023/01/09 01:41:29;;;;;;;1.40;0.80;;;;;;;;;;5029156;28;20076;-67
2023/01/09 01:43:57;;;;;;;3.97;1.00;;;;;;;;;;5029813;28;20095;-67
2023/01/09 01:46:23;;;;;;;2.70;1.00;;;;;;;;;;5030479;28;20041;-67
2023/01/09 01:48:51;;;;;;;3.33;1.23;;;;;;;;;;5029014;28;20051;-67
2023/01/09 01:51:18;;;;;;;4.57;1.30;;;;;;;;;;5028764;28;20045;-67
2023/01/09 01:53:47;;;;;;;1.95;1.40;;;;;;;;;;5030428;28;20397;-67
2023/01/09 01:56:16;;;;;;;3.53;1.20;;;;;;;;;;5030367;28;20099;-67
2023/01/09 01:59:04;;;;;;;2.20;1.55;;;;;;;;;;5030005;28;20425;-68
2023/01/09 02:01:31;;;;;;;3.67;1.63;;;;;;;;;;5012095;28;20073;-67
2023/01/09 02:03:58;;;;;;;4.25;1.80;;;;;;;;;;5030070;28;20095;-67
2023/01/09 02:06:25;;;;;;;2.22;1.60;;;;;;;;;;5029865;28;20450;-67
2023/01/09 02:08:51;;;;;;;2.05;1.75;;;;;;;;;;5030232;28;20049;-67
2023/01/09 02:11:18;;;;;;;3.97;1.73;;;;;;;;;;5035410;28;20487;-67
2023/01/09 02:13:44;;;;;;;9.10;2.00;;;;;;;;;;5049539;28;20040;-67
2023/01/09 02:16:46;;;;;;;4.00;2.15;;;;;;;;;;5050221;28;20064;-67
2023/01/09 02:19:31;;;;;;;6.97;1.90;;;;;;;;;;5050050;28;20051;-67
2023/01/09 02:21:57;;;;;;;4.55;2.10;;;;;;;;;;5049562;28;20106;-67
2023/01/09 02:24:26;;;;;;;7.07;2.60;;;;;;;;;;5048661;28;20033;-67
2023/01/09 02:26:55;;;;;;;5.78;1.70;;;;;;;;;;5032863;28;20391;-67
2023/01/09 02:29:39;;;;;;;5.97;2.00;;;;;;;;;;5027587;28;20041;-67
2023/01/09 02:32:17;;;;;;;7.40;2.42;;;;;;;;;;5029690;28;20048;-67
2023/01/09 02:34:48;;;;;;;5.78;1.88;;;;;;;;;;5029366;28;20043;-67
2023/01/09 02:37:14;;;;;;;9.35;2.10;;;;;;;;;;5029513;28;20037;-67
2023/01/09 02:39:39;;;;;;;6.90;1.92;;;;;;;;;;5029708;28;20477;-67
2023/01/09 02:42:05;;;;;;;4.53;2.30;;;;;;;;;;5028982;28;20081;-67
2023/01/09 02:44:34;;;;;;;6.15;2.00;;;;;;;;;;5029502;28;20045;-67
2023/01/09 02:47:00;;;;;;;6.55;2.15;;;;;;;;;;5029358;28;20298;-67
2023/01/09 02:49:27;;;;;;;11.18;2.55;;;;;;;;;;5029191;28;20312;-67
2023/01/09 02:51:56;;;;;;;7.68;2.42;;;;;;;;;;5029289;28;20056;-67
2023/01/09 02:54:28;;;;;;;5.57;2.42;;;;;;;;;;5029359;28;20447;-67
2023/01/09 02:57:24;;;;;;;5.93;2.17;;;;;;;;;;5028918;28;20049;-67
2023/01/09 02:59:58;;;;;;;8.48;2.58;;;;;;;;;;5028874;28;20052;-67
2023/01/09 03:02:36;;;;;;;7.15;2.40;;;;;;;;;;5027748;28;20040;-67
2023/01/09 03:05:08;;;;;;;8.98;2.58;;;;;;;;;;5029004;28;20029;-67
2023/01/09 03:07:37;;;;;;;8.45;2.35;;;;;;;;;;5028025;28;20037;-67
2023/01/09 03:10:11;;;;;;;8.80;2.80;;;;;;;;;;5028178;28;20500;-67
2023/01/09 03:12:37;;;;;;;4.88;2.30;;;;;;;;;;5045588;28;20167;-67
2023/01/09 03:15:04;;;;;;;9.40;2.55;;;;;;;;;;5048931;28;20071;-67
2023/01/09 03:17:34;;;;;;;6.90;2.40;;;;;;;;;;5048791;28;20033;-67
2023/01/09 03:20:02;;;;;;;7.88;2.45;;;;;;;;;;5048469;28;20045;-67
2023/01/09 03:22:28;;;;;;;9.25;2.53;;;;;;;;;;5048487;28;20162;-67
2023/01/09 03:24:54;;;;;;;7.13;2.58;;;;;;;;;;5047233;28;20079;-67
2023/01/09 03:27:20;;;;;;;7.78;2.80;;;;;;;;;;5028560;28;20033;-67
2023/01/09 03:29:46;;;;;;;8.40;2.90;;;;;;;;;;5027727;28;20472;-67
2023/01/09 03:32:12;;;;;;;9.18;3.13;;;;;;;;;;5027259;28;20087;-67
2023/01/09 03:34:38;;;;;;;6.32;2.72;;;;;;;;;;5010775;28;20093;-67
2023/01/09 03:37:04;;;;;;;5.25;2.45;;;;;;;;;;5029039;28;20037;-67
2023/01/09 03:39:31;;;;;;;9.82;3.13;;;;;;;;;;5028934;28;20037;-67
2023/01/09 03:41:57;;;;;;;5.80;2.65;;;;;;;;;;5030920;28;20037;-67
2023/01/09 03:44:23;;;;;;;4.53;2.33;;;;;;;;;;5033075;28;20038;-67
2023/01/09 03:46:49;;;;;;;7.63;3.15;;;;;;;;;;5032694;28;20041;-66
2023/01/09 03:49:16;;;;;;;7.00;2.80;;;;;;;;;;5031108;28;20056;-66
2023/01/09 03:51:42;;;;;;;6.10;2.35;;;;;;;;;;5033073;28;20428;-66
2023/01/09 03:54:08;;;;;;;4.90;2.75;;;;;;;;;;5032682;28;20055;-66
2023/01/09 03:56:34;;;;;;;6.35;2.70;;;;;;;;;;5032466;28;20055;-66
2023/01/09 03:59:00;;;;;;;7.90;2.75;;;;;;;;;;5014657;28;20116;-66
2023/01/09 04:01:26;;;;;;;7.10;2.92;;;;;;;;;;5032853;28;20699;-66
2023/01/09 04:03:52;;;;;;;8.23;2.78;;;;;;;;;;5030559;28;20104;-66
2023/01/09 04:06:18;;;;;;;5.40;2.90;;;;;;;;;;5032573;28;20042;-66
2023/01/09 04:08:45;;;;;;;6.13;3.00;;;;;;;;;;5032372;28;20498;-66
2023/01/09 04:11:11;;;;;;;8.70;3.25;;;;;;;;;;5036267;28;20039;-66
2023/01/09 04:13:37;;;;;;;8.80;3.03;;;;;;;;;;5051781;28;20048;-66
2023/01/09 04:16:03;;;;;;;5.13;3.78;;;;;;;;;;5052287;28;20091;-66
2023/01/09 04:18:29;;;;;;;7.45;3.47;;;;;;;;;;5051934;28;20117;-66
2023/01/09 04:20:55;;;;;;;7.43;3.65;;;;;;;;;;5051970;28;20048;-66
2023/01/09 04:23:21;;;;;;;10.15;3.88;;;;;;;;;;5050795;28;20045;-66
2023/01/09 04:25:47;;;;;;;7.85;4.32;;;;;;;;;;5044000;28;20061;-66
2023/01/09 04:28:13;;;;;;;8.55;4.63;;;;;;;;;;5032098;28;20496;-66
2023/01/09 04:30:39;;;;;;;10.82;4.82;;;;;;;;;;5031907;28;20045;-66
2023/01/09 04:33:05;;;;;;;7.43;4.82;;;;;;;;;;5031714;28;20496;-66
2023/01/09 04:35:31;;;;;;;11.52;5.50;;;;;;;;;;5031783;28;20046;-66
2023/01/09 04:37:58;;;;;;;10.68;5.45;;;;;;;;;;5032051;28;20045;-66
2023/01/09 04:40:24;;;;;;;11.82;6.00;;;;;;;;;;5031443;28;20056;-66
2023/01/09 04:42:50;;;;;;;12.40;6.47;;;;;;;;;;5030225;28;20152;-66
2023/01/09 04:45:16;;;;;;;13.23;6.45;;;;;;;;;;5031668;28;20037;-66
2023/01/09 04:47:42;;;;;;;10.77;6.22;;;;;;;;;;5031463;28;20403;-66
2023/01/09 04:50:09;;;;;;;13.73;7.70;;;;;;;;;;5031581;28;20115;-66
2023/01/09 04:52:35;;;;;;;17.13;8.35;;;;;;;;;;5029637;28;20049;-66
2023/01/09 04:55:01;;;;;;;13.40;8.52;;;;;;;;;;5031010;28;20480;-66
2023/01/09 04:57:27;;;;;;;15.23;8.80;;;;;;;;;;5030319;28;20064;-66
2023/01/09 04:59:53;;;;;;;17.55;10.77;;;;;;;;;;5031378;28;20052;-66
2023/01/09 05:02:19;;;;;;;16.08;9.55;;;;;;;;;;5031109;28;20411;-66
2023/01/09 05:04:45;;;;;;;20.00;9.68;;;;;;;;;;5031282;28;20041;-66
2023/01/09 05:07:11;;;;;;;19.77;10.35;;;;;;;;;;5031519;28;20047;-66
2023/01/09 05:09:37;;;;;;;16.13;10.15;;;;;;;;;;5029490;28;20034;-66
2023/01/09 05:12:03;;;;;;;22.00;11.20;;;;;;;;;;5043316;28;20040;-66
2023/01/09 05:14:29;;;;;;;16.45;10.52;;;;;;;;;;5051211;28;20045;-66
2023/01/09 05:16:55;;;;;;;18.17;11.65;;;;;;;;;;5051005;28;20095;-66
2023/01/09 05:19:22;;;;;;;17.58;11.15;;;;;;;;;;5049512;28;20060;-66
2023/01/09 05:21:48;;;;;;;17.25;11.20;;;;;;;;;;5050498;28;20064;-67
2023/01/09 05:24:14;;;;;;;23.63;12.40;;;;;;;;;;5050180;28;20045;-67
2023/01/09 05:26:40;;;;;;;18.88;11.20;;;;;;;;;;5036294;28;20129;-67
2023/01/09 05:29:06;;;;;;;16.77;11.52;;;;;;;;;;5033235;28;20037;-67
2023/01/09 05:31:32;;;;;;;15.82;11.15;;;;;;;;;;5032612;28;20475;-67
2023/01/09 05:33:59;;;;;;;19.58;11.63;;;;;;;;;;5032278;28;20420;-67
2023/01/09 05:36:26;;;;;;;22.77;11.43;;;;;;;;;;5032346;28;20056;-67
2023/01/09 05:38:52;;;;;;;19.65;11.63;;;;;;;;;;5031598;28;20045;-67
2023/01/09 05:41:18;;;;;;;17.02;11.25;;;;;;;;;;5032207;28;20136;-67
2023/01/09 05:43:44;;;;;;;18.70;11.40;;;;;;;;;;5032680;28;20045;-67
2023/01/09 05:46:10;;;;;;;18.52;11.27;;;;;;;;;;5032126;28;20041;-67
2023/01/09 05:48:36;;;;;;;18.05;11.20;;;;;;;;;;5030755;28;20096;-66
2023/01/09 05:51:03;;;;;;;22.00;11.27;;;;;;;;;;5032232;28;20125;-66
2023/01/09 05:53:29;;;;;;;16.23;11.60;;;;;;;;;;5032187;28;20084;-66
2023/01/09 05:55:55;;;;;;;19.75;11.65;;;;;;;;;;5031847;28;20095;-66
2023/01/09 05:58:21;;;;;;;18.10;11.07;;;;;;;;;;5032214;28;20057;-66
2023/01/09 06:00:48;;;;;;;20.13;11.90;;;;;;;;;;5032334;28;20614;-66
2023/01/09 06:03:14;;;;;;;17.42;10.23;;;;;;;;;;5030559;28;20487;-66
2023/01/09 06:05:40;;;;;;;18.55;12.02;;;;;;;;;;5051396;28;20041;-66
2023/01/09 06:08:06;;;;;;;22.38;12.48;;;;;;;;;;5052176;28;20043;-66
2023/01/09 06:10:32;;;;;;;19.67;10.65;;;;;;;;;;5033842;28;20096;-66
2023/01/09 06:12:58;;;;;;;18.73;11.27;;;;;;;;;;5050481;28;20048;-66
2023/01/09 06:15:24;;;;;;;24.13;10.27;;;;;;;;;;5052328;28;20103;-66
2023/01/09 06:17:50;;;;;;;17.42;11.15;;;;;;;;;;5051567;28;20080;-66
2023/01/09 06:20:16;;;;;;;16.45;10.45;;;;;;;;;;5051714;28;20133;-66
2023/01/09 06:22:44;;;;;;;15.98;10.35;;;;;;;;;;5051472;28;20068;-66
2023/01/09 06:25:10;;;;;;;13.65;8.65;;;;;;;;;;5049039;28;20115;-66
2023/01/09 06:27:36;;;;;;;16.10;9.05;;;;;;;;;;5031870;28;20091;-66
2023/01/09 06:30:02;;;;;;;16.90;9.25;;;;;;;;;;5030433;28;20041;-66
2023/01/09 06:32:28;;;;;;;17.40;8.88;;;;;;;;;;5031244;28;20047;-66
2023/01/09 06:34:54;;;;;;;14.20;8.02;;;;;;;;;;5031964;28;20703;-66
2023/01/09 06:37:20;;;;;;;15.38;8.95;;;;;;;;;;5031709;28;20124;-66
2023/01/09 06:39:46;;;;;;;12.50;8.40;;;;;;;;;;5031129;28;20473;-66
2023/01/09 06:42:12;;;;;;;17.75;8.43;;;;;;;;;;5030980;28;20444;-66
2023/01/09 06:44:38;;;;;;;12.32;7.60;;;;;;;;;;5031604;28;20080;-66
2023/01/09 06:47:04;;;;;;;10.73;6.97;;;;;;;;;;5030010;28;20041;-66
2023/01/09 06:49:30;;;;;;;11.45;7.10;;;;;;;;;;5029849;28;20052;-66
2023/01/09 06:51:56;;;;;;;11.65;7.22;;;;;;;;;;5031547;28;20435;-66
2023/01/09 06:54:22;;;;;;;13.35;7.03;;;;;;;;;;5030961;28;20052;-67
2023/01/09 06:56:48;;;;;;;11.85;7.07;;;;;;;;;;5031326;28;20480;-66
2023/01/09 06:59:15;;;;;;;11.57;6.72;;;;;;;;;;5030105;28;20053;-66
2023/01/09 07:01:41;;;;;;;14.00;7.20;;;;;;;;;;5029458;28;20050;-66
2023/01/09 07:04:09;;;;;;;12.32;6.90;;;;;;;;;;5029321;28;20041;-66
2023/01/09 07:06:36;;;;;;;12.20;6.47;;;;;;;;;;5031394;28;20056;-66
2023/01/09 07:09:03;;;;;;;12.32;6.25;;;;;;;;;;5030844;28;20044;-66
2023/01/09 07:11:29;;;;;;;12.70;6.47;;;;;;;;;;5039207;28;20048;-66
2023/01/09 07:13:55;;;;;;;10.93;6.18;;;;;;;;;;5050789;28;20067;-66
2023/01/09 07:16:21;;;;;;;14.10;6.18;;;;;;;;;;5050006;28;20037;-66
2023/01/09 07:18:48;;;;;;;12.40;5.82;;;;;;;;;;5049735;28;20074;-66
2023/01/09 07:21:14;;;;;;;9.90;5.55;;;;;;;;;;5041496;28;20060;-65
2023/01/09 07:23:40;;;;;;;13.68;5.60;;;;;;;;;;5010436;28;20377;-65
2023/01/09 07:26:06;;;;;;;11.70;5.50;;;;;;;;;;5016272;28;20532;-63
2023/01/09 07:28:32;;;;;;;10.27;5.95;;;;;;;;;;5016157;28;20464;-64
2023/01/09 07:31:01;;;;;;;9.65;5.38;;;;;;;;;;5010755;28;20049;-63
2023/01/09 07:33:27;;;;;;;11.75;5.60;;;;;;;;;;5022333;28;20046;-63
2023/01/09 07:35:53;;;;;;;10.05;5.53;;;;;;;;;;5030531;28;20042;-64
2023/01/09 07:38:19;;;;;;;14.45;6.07;;;;;;;;;;5029619;28;20076;-65
2023/01/09 07:40:45;;;;;;;10.45;5.53;;;;;;;;;;5022313;28;20483;-63
2023/01/09 07:43:11;;;;;;;12.73;4.82;;;;;;;;;;5036989;28;20041;-64
2023/01/09 07:45:37;;;;;;;9.10;4.88;;;;;;;;;;5032937;28;20443;-63
2023/01/09 07:48:04;;;;;;;8.13;5.22;;;;;;;;;;5029785;28;20045;-64
2023/01/09 07:50:30;;;;;;;7.85;5.10;;;;;;;;;;5027658;28;20050;-63
2023/01/09 07:52:56;;;;;;;10.18;4.65;;;;;;;;;;5005723;28;20042;-64
2023/01/09 07:55:22;;;;;;;7.55;4.85;;;;;;;;;;5010550;28;20064;-65
2023/01/09 07:57:49;;;;;;;13.10;5.20;;;;;;;;;;5029854;28;20104;-64
2023/01/09 08:00:16;;;;;;;11.00;5.10;;;;;;;;;;5027923;28;20077;-65
2023/01/09 08:02:42;;;;;;;9.52;4.63;;;;;;;;;;5026450;28;20041;-65
2023/01/09 08:05:12;;;;;;;10.25;4.50;;;;;;;;;;5029866;28;20790;-64
2023/01/09 08:07:38;;;;;;;10.20;4.80;;;;;;;;;;5028302;28;20049;-64
2023/01/09 08:10:04;;;;;;;7.65;4.55;;;;;;;;;;5028525;28;20624;-65
2023/01/09 08:12:30;;;;;;;7.68;4.10;;;;;;;;;;5028349;28;20033;-64
2023/01/09 08:14:56;;;;;;;10.27;4.32;;;;;;;;;;5029431;28;20053;-64
2023/01/09 08:17:22;;;;;;;14.00;4.00;;;;;;;;;;5029588;28;20065;-66
2023/01/09 08:19:48;;;;;;;7.65;3.58;;;;;;;;;;5028440;28;20081;-64
2023/01/09 08:22:14;;;;;;;9.90;4.85;;;;;;;;;;5026880;28;20049;-64
2023/01/09 08:24:40;;;;;;;6.38;3.53;;;;;;;;;;5029164;28;20389;-64
2023/01/09 08:27:06;;;;;;;5.93;3.55;;;;;;;;;;5029417;28;20048;-64
2023/01/09 08:29:32;;;;;;;8.98;3.65;;;;;;;;;;5027806;28;20053;-63
2023/01/09 08:31:58;;;;;;;11.13;3.50;;;;;;;;;;5016846;28;20091;-64
2023/01/09 08:34:25;;;;;;;9.27;3.85;;;;;;;;;;5032898;28;20041;-63
2023/01/09 08:36:52;;;;;;;8.07;3.95;;;;;;;;;;5032147;28;20045;-65
2023/01/09 08:39:18;;;;;;;12.68;4.20;;;;;;;;;;5031492;28;20049;-65
2023/01/09 08:47:19;;;;;;;9.15;3.78;;;;;;;;;;5034979;28;20069;-65
2023/01/09 08:49:45;;;;;;;5.65;3.70;;;;;;;;;;5027824;28;20090;-62
2023/01/09 08:52:12;;;;;;;7.45;4.10;;;;;;;;;;5026474;28;20046;-72
2023/01/09 08:54:38;;;;;;;10.00;3.80;;;;;;;;;;5011246;28;20080;-71
2023/01/09 08:57:05;;;;;;;8.95;3.90;;;;;;;;;;5018011;28;20057;-69
2023/01/09 08:59:31;;;;;;;11.38;3.92;;;;;;;;;;5031070;28;20041;-69
2023/01/09 09:01:57;;;;;;;10.48;3.85;;;;;;;;;;5014580;28;20078;-73
2023/01/09 09:04:23;;;;;;;10.15;3.70;;;;;;;;;;5031593;28;20046;-72
2023/01/09 09:06:49;;;;;;;7.70;4.05;;;;;;;;;;5030373;28;20044;-73
2023/01/09 09:09:15;;;;;;;8.63;3.80;;;;;;;;;;5025065;28;20061;-71
2023/01/09 09:11:42;;;;;;;11.73;4.30;;;;;;;;;;5028097;28;20458;-72
2023/01/09 09:16:52;;;;;;;10.00;3.80;;;;;;;;;;5032378;28;20057;-71
2023/01/09 09:19:18;;;;;;;10.48;4.00;;;;;;;;;;5029784;28;20053;-70
2023/01/09 09:21:45;;;;;;;8.57;3.90;;;;;;;;;;5030323;28;20099;-68
2023/01/09 09:24:11;;;;;;;9.25;3.97;;;;;;;;;;5028180;28;20076;-67
2023/01/09 09:26:37;;;;;;;6.95;3.72;;;;;;;;;;5030035;28;20041;-72
2023/01/09 09:29:03;;;;;;;7.43;3.53;;;;;;;;;;5026786;28;20048;-71
2023/01/09 09:31:29;;;;;;;7.93;3.88;;;;;;;;;;5029851;28;20059;-70
2023/01/09 09:33:56;;;;;;;9.65;3.30;;;;;;;;;;5030319;28;20559;-70
2023/01/09 09:36:22;;;;;;;5.72;4.05;;;;;;;;;;5029864;28;20458;-71
2023/01/09 09:38:48;;;;;;;7.70;3.60;;;;;;;;;;5045200;28;20132;-72
2023/01/09 09:44:43;;;;;;;6.68;3.50;;;;;;;;;;5026479;28;20049;-70
2023/01/09 09:47:27;;;;;;;10.65;3.45;;;;;;;;;;5018272;28;20124;-68
2023/01/09 09:50:09;;;;;;;10.20;3.42;;;;;;;;;;5020624;28;20125;-67
2023/01/09 09:52:53;;;;;;;9.70;3.53;;;;;;;;;;5025393;28;20046;-73
2023/01/09 09:55:29;;;;;;;8.82;3.13;;;;;;;;;;5011058;28;20073;-73
2023/01/09 09:57:56;;;;;;;9.32;4.03;;;;;;;;;;5021585;28;20034;-71
2023/01/09 10:00:23;;;;;;;9.48;3.25;;;;;;;;;;5030082;28;20052;-72
2023/01/09 10:02:51;;;;;;;9.43;3.67;;;;;;;;;;5029173;28;20045;-71
2023/01/09 10:05:28;;;;;;;7.40;3.33;;;;;;;;;;5027900;28;20115;-71
2023/01/09 10:07:56;;;;;;;5.75;3.13;;;;;;;;;;5030165;28;20041;-72
2023/01/09 10:10:27;;;;;;;10.10;3.45;;;;;;;;;;5013632;28;20418;-72
2023/01/09 10:12:54;;;;;;;7.22;3.00;;;;;;;;;;5027098;28;20049;-69
2023/01/09 10:15:45;;;;;;;7.82;3.67;;;;;;;;;;5029412;28;20095;-70
2023/01/09 10:18:14;;;;;;;8.45;3.42;;;;;;;;;;5030590;28;20570;-70
2023/01/09 10:20:57;;;;;;;9.45;3.50;;;;;;;;;;5028939;28;20106;-70
2023/01/09 10:23:26;;;;;;;7.22;3.42;;;;;;;;;;5027180;28;20091;-70
2023/01/09 10:25:56;;;;;;;9.13;3.15;;;;;;;;;;5011281;28;20038;-70
2023/01/09 10:28:35;;;;;;;7.18;3.42;;;;;;;;;;5022659;28;20041;-70
2023/01/09 10:31:16;;;;;;;8.02;3.78;;;;;;;;;;5029056;28;20045;-71
2023/01/09 10:33:54;;;;;;;13.95;4.40;;;;;;;;;;5029180;28;20041;-71
2023/01/09 10:36:29;;;;;;;7.07;3.72;;;;;;;;;;5026349;28;20098;-70
2023/01/09 10:38:56;;;;;;;11.73;4.07;;;;;;;;;;5019319;28;20064;-71
2023/01/09 10:41:35;;;;;;;9.05;3.83;;;;;;;;;;5009143;28;20104;-69
2023/01/09 10:44:40;;;;;;;7.78;3.75;;;;;;;;;;5018312;28;20713;-69
2023/01/09 10:47:21;;;;;;;6.68;3.88;;;;;;;;;;4972444;28;20046;-70
2023/01/09 10:49:49;;;;;;;8.80;4.10;;;;;;;;;;5018249;28;20099;-69
2023/01/09 10:52:17;;;;;;;10.15;3.42;;;;;;;;;;5028055;28;20045;-70
2023/01/09 10:54:49;;;;;;;9.30;3.80;;;;;;;;;;5008882;28;20048;-68
2023/01/09 10:57:23;;;;;;;8.38;3.88;;;;;;;;;;5016599;28;20077;-70
2023/01/09 10:59:49;;;;;;;10.82;3.97;;;;;;;;;;5001917;28;20052;-70
2023/01/09 11:02:32;;;;;;;10.20;4.45;;;;;;;;;;5012497;28;20052;-70
2023/01/09 11:04:58;;;;;;;8.65;3.90;;;;;;;;;;5026394;28;20093;-70
2023/01/09 11:07:30;;;;;;;5.30;3.80;;;;;;;;;;5028678;28;20041;-69
2023/01/09 11:09:56;;;;;;;9.35;3.83;;;;;;;;;;5026418;28;20052;-69
2023/01/09 11:12:23;;;;;;;7.55;4.43;;;;;;;;;;5039670;28;20052;-70
2023/01/09 11:14:49;;;;;;;9.13;4.53;;;;;;;;;;5011948;28;20133;-70
2023/01/09 11:17:20;;;;;;;9.85;4.88;;;;;;;;;;5008691;28;20196;-69
2023/01/09 11:20:03;;;;;;;10.38;4.93;;;;;;;;;;5020988;28;20061;-70
2023/01/09 11:22:35;;;;;;;8.52;4.45;;;;;;;;;;5022290;28;20364;-70
2023/01/09 11:25:05;;;;;;;13.07;5.78;;;;;;;;;;5034611;28;20048;-70
2023/01/09 11:27:31;;;;;;;9.07;5.28;;;;;;;;;;5027817;28;20091;-70
2023/01/09 11:30:16;;;;;;;11.70;5.47;;;;;;;;;;5029488;28;20056;-73
2023/01/09 11:32:42;;;;;;;11.88;6.20;;;;;;;;;;5028221;28;20420;-72
2023/01/09 11:35:16;;;;;;;11.40;5.57;;;;;;;;;;5011256;28;20901;-68
2023/01/09 11:37:43;;;;;;;10.48;6.03;;;;;;;;;;5023958;28;20064;-68
2023/01/09 11:40:17;;;;;;;9.30;5.63;;;;;;;;;;5029590;28;20030;-64
2023/01/09 11:43:00;;;;;;;11.15;6.10;;;;;;;;;;5028600;28;20091;-64
2023/01/09 11:45:31;;;;;;;11.65;6.15;;;;;;;;;;5030314;28;20387;-64
2023/01/09 11:47:57;;;;;;;14.18;6.50;;;;;;;;;;5030487;28;20077;-64
2023/01/09 11:50:27;;;;;;;12.43;6.72;;;;;;;;;;5029911;28;20041;-64
2023/01/09 11:53:11;;;;;;;12.18;6.15;;;;;;;;;;5029449;28;20064;-65
2023/01/09 11:55:38;;;;;;;15.75;6.85;;;;;;;;;;5027119;28;20074;-65
2023/01/09 11:58:04;;;;;;;15.90;6.72;;;;;;;;;;5029862;28;20041;-65
2023/01/09 12:00:34;;;;;;;15.50;7.05;;;;;;;;;;5029066;28;20037;-65
2023/01/09 12:03:09;;;;;;;12.38;6.97;;;;;;;;;;5024145;28;20042;-65
2023/01/09 12:05:48;;;;;;;12.50;7.10;;;;;;;;;;5025432;28;20037;-66
2023/01/09 12:08:31;;;;;;;11.38;7.07;;;;;;;;;;4996629;28;20428;-67
2023/01/09 12:11:05;;;;;;;12.70;6.70;;;;;;;;;;5031377;28;20365;-66
2023/01/09 12:13:41;;;;;;;14.20;7.32;;;;;;;;;;5046963;28;20042;-66
2023/01/09 12:16:19;;;;;;;13.30;7.38;;;;;;;;;;5032565;28;20049;-66
2023/01/09 12:19:11;;;;;;;12.15;7.55;;;;;;;;;;5031655;28;20037;-66
2023/01/09 12:21:40;;;;;;;13.43;7.65;;;;;;;;;;5031658;28;20103;-66
2023/01/09 12:24:20;;;;;;;14.00;8.25;;;;;;;;;;5032294;28;20048;-66
2023/01/09 12:27:05;;;;;;;15.10;7.93;;;;;;;;;;5030015;28;20124;-66
2023/01/09 12:29:50;;;;;;;14.63;8.23;;;;;;;;;;5031742;28;20033;-67
2023/01/09 12:32:39;;;;;;;12.98;8.27;;;;;;;;;;5032828;28;20049;-65
2023/01/09 12:35:18;;;;;;;15.63;8.52;;;;;;;;;;5003432;28;20137;-67
2023/01/09 12:38:04;;;;;;;14.30;7.40;;;;;;;;;;5011450;28;20050;-66
2023/01/09 12:40:48;;;;;;;13.77;8.30;;;;;;;;;;5012540;28;20045;-66
2023/01/09 12:43:20;;;;;;;14.70;8.38;;;;;;;;;;5025370;28;20132;-65
2023/01/09 12:46:10;;;;;;;14.40;7.63;;;;;;;;;;5008483;28;20167;-65
2023/01/09 12:49:08;;;;;;;14.07;8.13;;;;;;;;;;5031114;28;20053;-64
2023/01/09 12:51:40;;;;;;;14.93;8.32;;;;;;;;;;5011083;28;20046;-66
2023/01/09 12:54:09;;;;;;;16.30;8.32;;;;;;;;;;5020735;28;20100;-65
2023/01/09 12:56:38;;;;;;;14.15;9.18;;;;;;;;;;5033151;28;20045;-65
2023/01/09 12:59:29;;;;;;;14.10;8.57;;;;;;;;;;5031740;28;20044;-66
2023/01/09 13:01:58;;;;;;;14.38;8.68;;;;;;;;;;5031107;28;20079;-67
2023/01/09 13:04:27;;;;;;;14.43;8.77;;;;;;;;;;5031470;28;20038;-66
2023/01/09 13:07:05;;;;;;;14.43;8.63;;;;;;;;;;5031491;28;20076;-66
2023/01/09 13:09:31;;;;;;;16.95;8.77;;;;;;;;;;5014479;28;20112;-67
2023/01/09 13:12:20;;;;;;;14.68;8.63;;;;;;;;;;5026212;28;20052;-67
2023/01/09 13:14:46;;;;;;;15.93;8.98;;;;;;;;;;5038240;28;20048;-66
2023/01/09 13:17:15;;;;;;;14.82;9.27;;;;;;;;;;5031908;28;20484;-65
2023/01/09 13:19:42;;;;;;;14.38;9.30;;;;;;;;;;5031714;28;20062;-64
2023/01/09 13:22:10;;;;;;;17.48;9.18;;;;;;;;;;5032425;28;20049;-66
2023/01/09 13:24:51;;;;;;;17.00;9.23;;;;;;;;;;5031309;28;20042;-65
2023/01/09 13:27:19;;;;;;;16.27;9.52;;;;;;;;;;5029847;28;20061;-65
2023/01/09 13:29:47;;;;;;;14.82;8.85;;;;;;;;;;5031834;28;20412;-65
2023/01/09 13:32:23;;;;;;;19.15;8.35;;;;;;;;;;5032043;28;20040;-64
2023/01/09 13:34:50;;;;;;;14.55;8.70;;;;;;;;;;5030099;28;20056;-64
2023/01/09 13:37:36;;;;;;;15.95;8.20;;;;;;;;;;5032263;28;20045;-64
2023/01/09 13:40:04;;;;;;;17.80;7.47;;;;;;;;;;5011047;28;20050;-64
2023/01/09 13:42:46;;;;;;;15.10;8.43;;;;;;;;;;5020946;28;20061;-64
2023/01/09 13:45:19;;;;;;;17.20;8.03;;;;;;;;;;5032117;28;20036;-64
2023/01/09 13:47:45;;;;;;;14.00;7.85;;;;;;;;;;5031250;28;20084;-65
2023/01/09 13:50:11;;;;;;;13.77;7.40;;;;;;;;;;5030210;28;20068;-65
2023/01/09 13:52:41;;;;;;;16.50;7.75;;;;;;;;;;5031930;28;20552;-65
2023/01/09 13:55:13;;;;;;;20.75;8.27;;;;;;;;;;5029558;28;20407;-64
2023/01/09 13:57:39;;;;;;;;;;;;;;;;;;5031615;28;20037;-64
2023/01/09 14:00:11;;;;;;;15.95;7.85;;;;;;;;;;5030219;28;20445;-65
2023/01/09 14:02:37;;;;;;;18.27;7.93;;;;;;;;;;5022847;28;20096;-65
2023/01/09 14:05:24;;;;;;;12.25;7.20;;;;;;;;;;5031781;28;20038;-65
2023/01/09 14:07:52;;;;;;;19.45;7.45;;;;;;;;;;5013062;28;20120;-65
2023/01/09 14:10:25;;;;;;;17.80;6.90;;;;;;;;;;5030545;28;20041;-64
2023/01/09 14:12:53;;;;;;;13.77;6.70;;;;;;;;;;5050288;28;20439;-64
2023/01/09 14:15:25;;;;;;;18.60;7.10;;;;;;;;;;5034096;28;20477;-64
2023/01/09 14:17:58;;;;;;;13.40;7.30;;;;;;;;;;5030411;28;20049;-64
2023/01/09 14:20:26;;;;;;;19.75;6.82;;;;;;;;;;5030834;28;20056;-65
2023/01/09 14:22:57;;;;;;;17.73;6.20;;;;;;;;;;5030671;28;20141;-64
2023/01/09 14:25:25;;;;;;;16.98;6.22;;;;;;;;;;5029881;28;20113;-65
2023/01/09 14:27:54;;;;;;;13.68;6.03;;;;;;;;;;5030731;28;20091;-65
2023/01/09 14:30:26;;;;;;;14.88;5.18;;;;;;;;;;5031157;28;20068;-64
2023/01/09 14:32:56;;;;;;;12.52;4.78;;;;;;;;;;5030234;28;20095;-64
2023/01/09 14:35:27;;;;;;;14.98;3.90;;;;;;;;;;5030823;28;20491;-64
2023/01/09 14:38:14;;;;;;;12.68;4.53;;;;;;;;;;5030254;28;20038;-64
2023/01/09 14:40:45;;;;;;;20.38;4.60;;;;;;;;;;5017180;28;20038;-64
2023/01/09 14:43:14;;;;;;;13.77;4.30;;;;;;;;;;5024079;28;20034;-65
2023/01/09 14:45:43;;;;;;;14.15;3.90;;;;;;;;;;5031130;28;20065;-65
2023/01/09 14:48:11;;;;;;;14.90;3.50;;;;;;;;;;5029010;28;20045;-64
2023/01/09 14:50:43;;;;;;;18.88;3.53;;;;;;;;;;5030956;28;20033;-64
2023/01/09 14:53:16;;;;;;;14.02;3.42;;;;;;;;;;5029452;28;20392;-65
2023/01/09 14:55:42;;;;;;;16.88;3.65;;;;;;;;;;5029130;28;20061;-65
2023/01/09 14:58:18;;;;;;;17.00;4.13;;;;;;;;;;5030557;28;20049;-64
2023/01/09 15:00:53;;;;;;;11.15;3.70;;;;;;;;;;5029547;28;20041;-64
2023/01/09 15:03:20;;;;;;;17.13;3.40;;;;;;;;;;5029954;28;20056;-64
2023/01/09 15:05:46;;;;;;;17.33;2.90;;;;;;;;;;5021193;28;21365;-67